Time;durP1;ratioP1;P1;durP2;ratioP2;P2;SDS_P1;SDS_P2;PMS_P1;PMS_P2;Temp;Humidity;BMP_temperature;BMP_pressure;BME280_temperature;BME280_humidity;BME280_pressure;Samples;Min_cycle;Max_cycle;Signal;HPM_P1;HPM_P2
2021/12/28 00:00:26;;;;;;;;;71.50;56.25;6.10;77.90;;;;;;5015410;28;8766;-68
2021/12/28 00:02:54;;;;;;;;;71.50;56.25;5.90;81.20;;;;;;5015329;28;9490;-68
2021/12/28 00:05:20;;;;;;;;;69.25;54.75;5.80;80.30;;;;;;5015487;28;9423;-68
2021/12/28 00:07:46;;;;;;;;;68.25;55.75;5.90;80.20;;;;;;5015248;28;8790;-67
2021/12/28 00:10:16;;;;;;;;;67.75;53.75;5.80;80.70;;;;;;5015426;28;8750;-67
2021/12/28 00:12:42;;;;;;;;;64.75;51.25;5.90;80.60;;;;;;5015175;28;8790;-68
2021/12/28 00:18:00;;;;;;;;;59.00;48.50;5.80;81.80;;;;;;5015239;28;8826;-67
2021/12/28 00:20:27;;;;;;;;;67.00;52.00;5.50;84.40;;;;;;5015363;28;9221;-68
2021/12/28 00:22:53;;;;;;;;;71.75;56.00;5.40;85.20;;;;;;5015002;28;8766;-68
2021/12/28 00:25:19;;;;;;;;;69.50;56.00;5.60;82.90;;;;;;5014934;28;8777;-67
2021/12/28 00:27:44;;;;;;;;;69.50;54.25;5.90;81.20;;;;;;5015184;28;8769;-69
2021/12/28 00:30:11;;;;;;;;;66.50;52.00;6.10;79.80;;;;;;5015192;28;9446;-70
2021/12/28 00:32:37;;;;;;;;;62.25;50.00;6.20;78.40;;;;;;5014811;28;8793;-69
2021/12/28 00:35:04;;;;;;;;;63.50;52.00;6.10;78.50;;;;;;5015048;28;8845;-70
2021/12/28 00:37:30;;;;;;;;;66.50;53.50;5.80;80.90;;;;;;5015045;28;8809;-66
2021/12/28 00:39:56;;;;;;;;;68.00;56.50;5.70;81.00;;;;;;5014970;28;9420;-69
2021/12/28 00:42:22;;;;;;;;;74.50;56.00;5.90;79.60;;;;;;5013824;28;8747;-69
2021/12/28 00:44:48;;;;;;;;;62.75;52.25;5.90;79.90;;;;;;5014912;28;8758;-69
2021/12/28 00:47:14;;;;;;;;;47.25;41.25;5.90;80.10;;;;;;5014855;28;9400;-67
2021/12/28 00:49:40;;;;;;;;;72.00;55.50;5.90;80.30;;;;;;5014583;28;8769;-67
2021/12/28 00:52:06;;;;;;;;;69.75;54.50;6.00;79.50;;;;;;5014427;28;8793;-67
2021/12/28 00:54:32;;;;;;;;;64.00;53.25;5.50;84.10;;;;;;5014498;28;8868;-67
2021/12/28 00:56:57;;;;;;;;;73.50;58.75;5.70;82.50;;;;;;5014464;28;8788;-68
2021/12/28 00:59:23;;;;;;;;;69.00;53.50;5.50;83.90;;;;;;5014800;28;8762;-69
2021/12/28 01:01:49;;;;;;;;;63.75;51.25;5.80;81.40;;;;;;5014836;28;8859;-68
2021/12/28 01:04:15;;;;;;;;;62.50;51.00;5.70;81.80;;;;;;5014532;28;8773;-69
2021/12/28 01:06:41;;;;;;;;;71.00;55.00;5.70;81.70;;;;;;5014591;28;8751;-69
2021/12/28 01:09:07;;;;;;;;;69.50;54.00;5.50;84.30;;;;;;5014420;28;8777;-67
2021/12/28 01:11:33;;;;;;;;;65.00;51.50;5.60;84.50;;;;;;5014407;28;8778;-69
2021/12/28 01:13:59;;;;;;;;;67.50;52.50;5.50;84.00;;;;;;5014283;28;8750;-67
2021/12/28 01:16:25;;;;;;;;;69.75;53.75;5.50;83.20;;;;;;5014286;28;8825;-68
2021/12/28 01:18:51;;;;;;;;;68.50;51.75;5.70;81.80;;;;;;5014188;28;8810;-67
2021/12/28 01:21:18;;;;;;;;;64.75;47.25;5.90;80.40;;;;;;5014353;28;9400;-68
2021/12/28 01:23:44;;;;;;;;;68.00;54.00;5.70;83.20;;;;;;5014330;28;8762;-67
2021/12/28 01:26:10;;;;;;;;;67.25;55.00;5.40;85.00;;;;;;5014499;28;8758;-67
2021/12/28 01:28:36;;;;;;;;;72.75;58.00;5.40;85.30;;;;;;5014264;28;8789;-67
2021/12/28 01:31:02;;;;;;;;;46.25;43.25;5.50;83.50;;;;;;5014346;28;8762;-67
2021/12/28 01:33:28;;;;;;;;;72.75;58.50;5.80;81.60;;;;;;5014224;28;8801;-68
2021/12/28 01:35:54;;;;;;;;;70.25;55.75;6.00;80.30;;;;;;5014275;28;8766;-68
2021/12/28 01:38:20;;;;;;;;;70.75;56.00;5.90;80.40;;;;;;5014447;28;9427;-68
2021/12/28 01:40:45;;;;;;;;;76.00;59.75;6.00;79.90;;;;;;5014146;28;8844;-68
2021/12/28 01:43:23;;;;;;;;;73.00;58.50;6.10;80.00;;;;;;5014268;28;8789;-68
2021/12/28 01:45:51;;;;;;;;;68.00;52.75;6.00;79.90;;;;;;5014413;28;9436;-68
2021/12/28 01:48:24;;;;;;;;;65.25;52.75;5.90;80.50;;;;;;5014532;28;8798;-68
2021/12/28 01:50:52;;;;;;;;;77.75;60.00;5.70;82.50;;;;;;5014108;28;8774;-68
2021/12/28 01:53:18;;;;;;;;;75.00;56.00;6.00;80.30;;;;;;5014818;28;9629;-68
2021/12/28 01:55:47;;;;;;;;;69.75;58.50;6.00;80.20;;;;;;5017704;28;8778;-68
2021/12/28 01:58:14;;;;;;;;;74.50;58.00;5.80;82.10;;;;;;5017738;28;8754;-68
2021/12/28 02:00:44;;;;;;;;;58.50;47.25;6.00;80.10;;;;;;5017695;28;8861;-68
2021/12/28 02:03:14;;;;;;;;;73.75;58.75;6.30;78.20;;;;;;5017586;28;8770;-68
2021/12/28 02:05:40;;;;;;;;;75.00;57.75;6.20;78.20;;;;;;5017633;28;8767;-68
2021/12/28 02:08:08;;;;;;;;;74.25;57.75;6.40;77.80;;;;;;5017745;28;9482;-68
2021/12/28 02:10:36;;;;;;;;;80.00;63.00;6.20;78.40;;;;;;5017620;28;8865;-68
2021/12/28 02:13:05;;;;;;;;;77.00;60.00;6.10;79.10;;;;;;5017228;28;8805;-68
2021/12/28 02:15:31;;;;;;;;;69.25;56.00;5.70;81.90;;;;;;5017327;28;8796;-68
2021/12/28 02:17:57;;;;;;;;;75.00;58.25;5.70;82.50;;;;;;5017269;28;8852;-68
2021/12/28 02:20:23;;;;;;;;;69.00;57.50;5.70;82.30;;;;;;5017209;28;8782;-68
2021/12/28 02:22:49;;;;;;;;;72.50;59.00;5.70;82.10;;;;;;5017228;28;8778;-68
2021/12/28 02:25:17;;;;;;;;;74.75;57.75;5.90;81.40;;;;;;5017137;28;8892;-68
2021/12/28 02:27:43;;;;;;;;;73.00;59.50;5.90;81.40;;;;;;5017362;28;8758;-68
2021/12/28 02:30:14;;;;;;;;;83.50;64.50;5.80;82.40;;;;;;5017138;28;8777;-69
2021/12/28 02:32:41;;;;;;;;;84.75;65.00;6.00;81.30;;;;;;5016999;28;8820;-69
2021/12/28 02:35:10;;;;;;;;;89.00;70.00;6.00;81.70;;;;;;5017013;28;8784;-68
2021/12/28 02:37:36;;;;;;;;;88.50;69.00;5.80;82.30;;;;;;5017163;28;8857;-68
2021/12/28 02:40:08;;;;;;;;;77.50;60.50;5.60;85.00;;;;;;5016874;28;8770;-68
2021/12/28 02:42:34;;;;;;;;;71.00;57.25;5.40;86.60;;;;;;5017088;28;8778;-68
2021/12/28 02:45:12;;;;;;;;;78.00;61.00;5.40;86.30;;;;;;5016817;28;8761;-68
2021/12/28 02:47:42;;;;;;;;;74.00;58.50;5.70;83.70;;;;;;4995121;28;8800;-68
2021/12/28 02:50:12;;;;;;;;;72.75;58.00;5.80;82.40;;;;;;4997136;28;8756;-68
2021/12/28 02:52:38;;;;;;;;;81.50;64.25;5.70;83.50;;;;;;4997008;28;8808;-68
2021/12/28 02:55:12;;;;;;;;;77.00;64.25;5.80;82.60;;;;;;4997259;28;8867;-68
2021/12/28 02:57:44;;;;;;;;;78.00;59.75;6.00;81.40;;;;;;4997243;28;8778;-68
2021/12/28 03:00:10;;;;;;;;;76.00;61.00;5.90;81.40;;;;;;4996981;28;8740;-68
2021/12/28 03:02:36;;;;;;;;;67.75;53.75;5.80;82.20;;;;;;4996802;28;8784;-68
2021/12/28 03:05:02;;;;;;;;;68.50;54.00;5.70;83.70;;;;;;4995804;28;8779;-69
2021/12/28 03:07:31;;;;;;;;;71.75;55.50;5.80;82.40;;;;;;4996739;28;8768;-68
2021/12/28 03:09:57;;;;;;;;;75.75;60.00;5.80;83.80;;;;;;4996958;28;8787;-68
2021/12/28 03:12:23;;;;;;;;;70.25;55.75;5.70;84.90;;;;;;4996684;28;8784;-68
2021/12/28 03:14:49;;;;;;;;;74.50;56.00;5.70;85.00;;;;;;4996677;28;8764;-68
2021/12/28 03:17:15;;;;;;;;;67.25;53.25;5.80;82.20;;;;;;4996677;28;8808;-69
2021/12/28 03:19:41;;;;;;;;;61.50;50.00;5.50;85.40;;;;;;4996878;28;8771;-68
2021/12/28 03:22:06;;;;;;;;;66.75;52.75;5.50;86.70;;;;;;4996516;28;8789;-68
2021/12/28 03:24:32;;;;;;;;;69.50;54.50;5.70;83.40;;;;;;4996460;28;8772;-69
2021/12/28 03:26:58;;;;;;;;;66.75;53.00;6.00;81.70;;;;;;4996713;28;8768;-68
2021/12/28 03:29:24;;;;;;;;;65.00;51.00;6.00;81.70;;;;;;4996398;28;8799;-68
2021/12/28 03:31:50;;;;;;;;;71.50;55.00;6.00;81.20;;;;;;4996518;28;8800;-68
2021/12/28 03:34:16;;;;;;;;;63.00;50.25;5.90;82.20;;;;;;4996246;28;8752;-68
2021/12/28 03:36:42;;;;;;;;;69.00;56.50;6.20;79.40;;;;;;4996249;28;8764;-69
2021/12/28 03:39:08;;;;;;;;;69.00;54.75;5.90;82.50;;;;;;4996399;28;8784;-68
2021/12/28 03:41:35;;;;;;;;;65.25;52.25;5.40;85.90;;;;;;4996149;28;8768;-68
2021/12/28 03:44:03;;;;;;;;;68.00;54.25;5.60;84.80;;;;;;4996100;28;8772;-68
2021/12/28 03:46:30;;;;;;;;;72.50;57.25;5.20;87.60;;;;;;4996037;28;8807;-68
2021/12/28 03:48:57;;;;;;;;;68.50;56.00;5.40;88.50;;;;;;4996032;28;8768;-68
2021/12/28 03:51:23;;;;;;;;;65.50;52.75;5.40;87.10;;;;;;4995908;28;8764;-68
2021/12/28 03:53:50;;;;;;;;;70.25;54.75;5.60;85.50;;;;;;4995886;28;8794;-68
2021/12/28 03:56:16;;;;;;;;;70.00;56.00;5.70;84.40;;;;;;4996185;28;8760;-68
2021/12/28 03:58:44;;;;;;;;;75.00;58.50;5.50;86.40;;;;;;4996071;28;8772;-68
2021/12/28 04:01:13;;;;;;;;;67.50;50.25;5.60;85.10;;;;;;4995792;28;8878;-68
2021/12/28 04:03:39;;;;;;;;;61.50;46.75;5.60;85.80;;;;;;4995934;28;8776;-68
2021/12/28 04:06:08;;;;;;;;;62.25;52.50;5.40;86.90;;;;;;4995985;28;8760;-68
2021/12/28 04:08:36;;;;;;;;;70.75;54.75;5.60;85.10;;;;;;4995676;28;8780;-68
2021/12/28 04:13:48;;;;;;;;;66.75;52.50;5.40;86.60;;;;;;4995645;28;8812;-69
2021/12/28 04:16:14;;;;;;;;;73.75;57.75;5.50;84.80;;;;;;4995233;28;8842;-69
2021/12/28 04:18:41;;;;;;;;;72.00;57.75;5.70;84.20;;;;;;4995510;28;8788;-70
2021/12/28 04:21:08;;;;;;;;;79.00;60.00;5.70;84.00;;;;;;4995541;28;9389;-69
2021/12/28 04:23:35;;;;;;;;;77.00;61.00;5.70;85.20;;;;;;4995452;28;8760;-69
2021/12/28 04:26:02;;;;;;;;;74.75;60.00;5.70;84.40;;;;;;4995613;28;9552;-69
2021/12/28 04:28:28;;;;;;;;;66.50;55.25;6.00;82.50;;;;;;4995411;28;8837;-69
2021/12/28 04:30:54;;;;;;;;;73.25;57.00;5.80;83.00;;;;;;4995372;28;8768;-69
2021/12/28 04:33:19;;;;;;;;;71.00;54.50;5.80;84.20;;;;;;4995256;28;8796;-69
2021/12/28 04:35:46;;;;;;;;;84.00;60.25;5.50;86.00;;;;;;4995251;28;8780;-69
2021/12/28 04:38:12;;;;;;;;;65.50;54.50;5.10;90.30;;;;;;4995662;28;8772;-69
2021/12/28 04:40:39;;;;;;;;;73.50;56.75;5.20;89.80;;;;;;5014820;28;8782;-69
2021/12/28 04:43:06;;;;;;;;;74.00;55.75;5.00;90.10;;;;;;5014732;28;8829;-70
2021/12/28 04:45:35;;;;;;;;;72.75;57.00;5.40;88.20;;;;;;5014732;28;8754;-69
2021/12/28 04:48:01;;;;;;;;;73.00;57.25;5.40;87.60;;;;;;5015135;28;9579;-69
2021/12/28 04:50:27;;;;;;;;;73.00;56.75;5.30;88.60;;;;;;5014669;28;8881;-68
2021/12/28 04:52:53;;;;;;;;;66.00;52.25;5.70;85.70;;;;;;5014845;28;8828;-68
2021/12/28 04:55:19;;;;;;;;;74.00;57.00;5.60;86.00;;;;;;5014598;28;8853;-68
2021/12/28 04:57:46;;;;;;;;;76.00;57.50;5.70;85.80;;;;;;5014648;28;8763;-68
2021/12/28 05:00:19;;;;;;;;;74.50;57.50;5.90;84.00;;;;;;5014857;28;8800;-68
2021/12/28 05:02:46;;;;;;;;;70.25;55.50;5.80;85.10;;;;;;5014879;28;8762;-68
2021/12/28 05:05:12;;;;;;;;;61.25;52.50;5.80;84.70;;;;;;5014547;28;8774;-68
2021/12/28 05:07:39;;;;;;;;;66.75;56.00;5.70;84.90;;;;;;5014516;28;8770;-68
2021/12/28 05:10:06;;;;;;;;;68.25;54.50;5.70;84.30;;;;;;5014581;28;8754;-68
2021/12/28 05:12:32;;;;;;;;;76.50;59.25;5.30;89.20;;;;;;5014279;28;8802;-68
2021/12/28 05:14:59;;;;;;;;;80.50;58.75;5.30;89.10;;;;;;5014640;28;8777;-68
2021/12/28 05:17:26;;;;;;;;;79.25;61.00;5.30;90.00;;;;;;5014075;28;8802;-68
2021/12/28 05:19:53;;;;;;;;;80.50;64.75;5.60;87.50;;;;;;5014425;28;8794;-68
2021/12/28 05:22:19;;;;;;;;;82.75;62.00;5.60;86.70;;;;;;5014564;28;8765;-67
2021/12/28 05:24:45;;;;;;;;;88.00;67.00;5.90;84.30;;;;;;5014224;28;8770;-66
2021/12/28 05:27:10;;;;;;;;;81.75;59.75;6.00;83.40;;;;;;5014459;28;8773;-68
2021/12/28 05:29:36;;;;;;;;;76.75;60.00;5.90;84.60;;;;;;4999621;28;8782;-68
2021/12/28 05:32:03;;;;;;;;;82.25;63.25;5.70;87.90;;;;;;5018259;28;8864;-68
2021/12/28 05:34:29;;;;;;;;;79.00;60.25;5.80;86.30;;;;;;5018145;28;8766;-68
2021/12/28 05:36:55;;;;;;;;;83.00;64.75;5.70;88.10;;;;;;5018179;28;8808;-67
2021/12/28 05:39:20;;;;;;;;;78.00;60.50;5.60;87.20;;;;;;5016417;28;9451;-67
2021/12/28 05:41:46;;;;;;;;;79.50;61.25;5.70;86.90;;;;;;5016887;28;8782;-68
2021/12/28 05:44:12;;;;;;;;;69.75;58.00;5.60;88.00;;;;;;5011642;28;8856;-68
2021/12/28 05:46:38;;;;;;;;;78.75;63.00;5.50;88.40;;;;;;5016806;28;8817;-69
2021/12/28 05:49:04;;;;;;;;;80.00;62.00;5.60;88.60;;;;;;5017585;28;8754;-67
2021/12/28 05:51:30;;;;;;;;;80.75;65.25;5.50;87.90;;;;;;5014732;28;9427;-65
2021/12/28 05:53:55;;;;;;;;;85.25;67.25;5.70;88.40;;;;;;5015463;28;8797;-65
2021/12/28 05:56:21;;;;;;;;;74.50;61.75;5.80;86.50;;;;;;5016934;28;8785;-63
2021/12/28 05:58:47;;;;;;;;;78.00;59.75;5.70;87.30;;;;;;5017512;28;8881;-64
2021/12/28 06:01:13;;;;;;;;;72.00;57.00;5.80;86.70;;;;;;5013023;28;8828;-64
2021/12/28 06:03:39;;;;;;;;;81.25;60.25;6.10;83.20;;;;;;5016221;28;8782;-66
2021/12/28 06:06:05;;;;;;;;;64.00;52.00;6.10;83.20;;;;;;5016309;28;8761;-67
2021/12/28 06:08:31;;;;;;;;;74.75;59.00;6.00;84.00;;;;;;5017033;28;8754;-67
2021/12/28 06:10:57;;;;;;;;;62.75;49.50;5.60;86.20;;;;;;5017624;28;9444;-66
2021/12/28 06:13:23;;;;;;;;;75.00;57.50;5.70;87.70;;;;;;5017251;28;8794;-64
2021/12/28 06:15:49;;;;;;;;;72.00;57.00;5.50;88.00;;;;;;5017353;28;8770;-65
2021/12/28 06:18:15;;;;;;;;;75.50;59.50;5.40;90.20;;;;;;5017090;28;8840;-65
2021/12/28 06:20:41;;;;;;;;;72.50;57.75;5.60;87.90;;;;;;5015559;28;8882;-65
2021/12/28 06:23:07;;;;;;;;;80.75;59.50;5.40;90.30;;;;;;5017202;28;8782;-66
2021/12/28 06:25:33;;;;;;;;;81.75;61.00;5.20;90.90;;;;;;5016877;28;8772;-66
2021/12/28 06:27:59;;;;;;;;;88.25;66.75;5.30;90.70;;;;;;5017152;28;8766;-65
2021/12/28 06:30:25;;;;;;;;;85.75;66.75;5.30;91.10;;;;;;5017085;28;8758;-65
2021/12/28 06:32:51;;;;;;;;;85.25;66.75;5.80;87.90;;;;;;5017179;28;8889;-65
2021/12/28 06:35:16;;;;;;;;;74.25;58.00;5.50;88.80;;;;;;5016896;28;8901;-66
2021/12/28 06:37:43;;;;;;;;;74.50;59.00;5.30;91.00;;;;;;5017135;28;8778;-66
2021/12/28 06:40:11;;;;;;;;;70.25;56.00;5.50;90.30;;;;;;5016801;28;8778;-66
2021/12/28 06:42:37;;;;;;;;;85.25;61.75;5.60;88.00;;;;;;5016790;28;8884;-65
2021/12/28 06:45:03;;;;;;;;;76.75;59.75;5.00;91.70;;;;;;5016951;28;8841;-65
2021/12/28 06:47:29;;;;;;;;;80.00;59.50;4.50;94.60;;;;;;5017070;28;8932;-65
2021/12/28 06:49:55;;;;;;;;;73.25;55.75;4.40;95.50;;;;;;5016615;28;8770;-65
2021/12/28 06:52:21;;;;;;;;;71.00;58.00;4.20;96.90;;;;;;5013268;28;8816;-66
2021/12/28 06:54:47;;;;;;;;;68.25;55.50;4.10;98.10;;;;;;5016880;28;9485;-66
2021/12/28 06:57:12;;;;;;;;;75.75;61.25;4.10;98.50;;;;;;5016338;28;8812;-66
2021/12/28 06:59:43;;;;;;;;;83.25;60.00;4.20;97.50;;;;;;5016457;28;8845;-67
2021/12/28 07:02:13;;;;;;;;;77.75;60.25;4.10;98.20;;;;;;5016620;28;8781;-66
2021/12/28 07:04:39;;;;;;;;;84.50;65.50;4.20;98.10;;;;;;5016767;28;8747;-67
2021/12/28 07:07:06;;;;;;;;;86.00;63.50;4.60;96.40;;;;;;5016386;28;8754;-66
2021/12/28 07:09:32;;;;;;;;;87.00;67.00;4.70;95.90;;;;;;5016341;28;8847;-66
2021/12/28 07:11:58;;;;;;;;;86.00;68.00;4.90;94.90;;;;;;5016261;28;8805;-66
2021/12/28 07:14:24;;;;;;;;;87.00;67.50;5.20;92.70;;;;;;5016238;28;8762;-67
2021/12/28 07:16:50;;;;;;;;;83.75;63.50;5.30;91.60;;;;;;5015108;28;8802;-67
2021/12/28 07:19:16;;;;;;;;;81.50;64.25;5.60;89.90;;;;;;5016065;28;8794;-66
2021/12/28 07:21:42;;;;;;;;;71.25;55.00;5.50;89.90;;;;;;5015860;28;8889;-67
2021/12/28 07:24:09;;;;;;;;;74.00;59.50;5.40;90.60;;;;;;5015519;28;8742;-66
2021/12/28 07:26:36;;;;;;;;;69.25;56.25;5.60;88.80;;;;;;5016082;28;8754;-67
2021/12/28 07:29:03;;;;;;;;;73.25;58.00;5.00;91.10;;;;;;5015981;28;8762;-65
2021/12/28 07:31:29;;;;;;;;;76.25;58.25;4.80;93.60;;;;;;5015899;28;8762;-67
2021/12/28 07:33:55;;;;;;;;;81.50;65.50;4.90;94.00;;;;;;5015890;28;8802;-69
2021/12/28 07:36:21;;;;;;;;;77.75;58.00;5.00;93.40;;;;;;5015857;28;8766;-62
2021/12/28 07:38:47;;;;;;;;;81.00;63.00;5.30;90.70;;;;;;5015769;28;8782;-65
2021/12/28 07:41:14;;;;;;;;;77.50;60.50;5.60;88.30;;;;;;5015825;28;8774;-64
2021/12/28 07:43:39;;;;;;;;;71.00;55.50;5.40;89.40;;;;;;5015684;28;8778;-64
2021/12/28 07:46:05;;;;;;;;;85.50;67.00;5.20;90.40;;;;;;5015432;28;8812;-63
2021/12/28 07:48:32;;;;;;;;;66.50;54.75;5.30;90.30;;;;;;5015905;28;8814;-63
2021/12/28 07:50:58;;;;;;;;;67.00;53.50;4.90;91.30;;;;;;5015415;28;8873;-64
2021/12/28 07:53:23;;;;;;;;;77.75;62.00;4.70;92.40;;;;;;5015329;28;8789;-64
2021/12/28 07:55:49;;;;;;;;;75.00;60.50;4.90;92.20;;;;;;5015453;28;8788;-64
2021/12/28 07:58:15;;;;;;;;;79.00;59.25;5.00;91.60;;;;;;5015562;28;8746;-64
2021/12/28 08:00:41;;;;;;;;;78.25;62.00;5.00;91.50;;;;;;5015662;28;8856;-63
2021/12/28 08:03:07;;;;;;;;;78.50;62.25;5.20;91.10;;;;;;5015320;28;8844;-63
2021/12/28 08:05:35;;;;;;;;;72.25;54.75;5.10;91.10;;;;;;5015396;28;8743;-63
2021/12/28 08:08:02;;;;;;;;;79.25;62.25;4.80;92.60;;;;;;5015498;28;8766;-63
2021/12/28 08:10:29;;;;;;;;;80.25;64.25;4.80;92.70;;;;;;5015492;28;8773;-63
2021/12/28 08:12:56;;;;;;;;;83.00;66.00;4.70;94.30;;;;;;5015408;28;8884;-64
2021/12/28 08:15:25;;;;;;;;;91.50;69.50;4.90;92.90;;;;;;5015391;28;8852;-63
2021/12/28 08:17:51;;;;;;;;;88.00;67.50;4.90;93.90;;;;;;5015139;28;9452;-64
2021/12/28 08:20:18;;;;;;;;;82.00;66.50;4.90;93.70;;;;;;5015092;28;8774;-64
2021/12/28 08:22:45;;;;;;;;;93.25;74.00;4.90;93.40;;;;;;5015258;28;8792;-63
2021/12/28 08:25:15;;;;;;;;;85.00;65.00;5.20;92.80;;;;;;5015017;28;9376;-63
2021/12/28 08:27:41;;;;;;;;;85.00;66.25;5.40;91.30;;;;;;5015020;28;8762;-65
2021/12/28 08:30:08;;;;;;;;;97.00;81.25;5.30;91.20;;;;;;5014920;28;8804;-64
2021/12/28 08:32:34;;;;;;;;;97.00;79.00;5.40;90.70;;;;;;5015032;28;8790;-64
2021/12/28 08:35:00;;;;;;;;;79.50;61.25;5.60;89.90;;;;;;5014787;28;8754;-64
2021/12/28 08:37:27;;;;;;;;;82.50;64.75;5.50;89.80;;;;;;5014801;28;8766;-64
2021/12/28 08:39:53;;;;;;;;;85.25;66.50;5.80;88.10;;;;;;5014893;28;9427;-63
2021/12/28 08:42:21;;;;;;;;;81.50;62.00;5.40;90.70;;;;;;5014638;28;8884;-63
2021/12/28 08:44:47;;;;;;;;;75.50;63.25;5.00;92.90;;;;;;5014975;28;8804;-63
2021/12/28 08:47:13;;;;;;;;;78.25;61.50;5.20;92.20;;;;;;5014894;28;8888;-64
2021/12/28 08:49:39;;;;;;;;;77.50;63.00;4.90;93.00;;;;;;5014612;28;8762;-62
2021/12/28 08:52:05;;;;;;;;;78.25;62.75;4.60;94.50;;;;;;5014471;28;8793;-63
2021/12/28 08:54:31;;;;;;;;;82.75;64.50;4.90;94.20;;;;;;5014620;28;8772;-64
2021/12/28 08:56:57;;;;;;;;;74.00;59.25;5.30;91.90;;;;;;5014776;28;8770;-63
2021/12/28 08:59:22;;;;;;;;;80.75;64.75;5.30;90.70;;;;;;5014603;28;8766;-63
2021/12/28 09:01:49;;;;;;;;;78.50;62.00;5.00;92.10;;;;;;5014463;28;8836;-63
2021/12/28 09:04:17;;;;;;;;;93.25;74.50;5.00;92.20;;;;;;5016996;28;8754;-62
2021/12/28 09:06:46;;;;;;;;;98.75;82.00;4.80;93.20;;;;;;5018388;28;8819;-63
2021/12/28 09:09:12;;;;;;;;;96.75;86.75;5.20;91.80;;;;;;5018407;28;9440;-63
2021/12/28 09:11:38;;;;;;;;;95.00;76.33;5.30;91.70;;;;;;5018660;28;8758;-63
2021/12/28 09:14:04;;;;;;;;;92.75;77.75;5.30;90.70;;;;;;5018494;28;8766;-64
2021/12/28 09:16:30;;;;;;;;;96.75;84.25;5.40;89.90;;;;;;5018584;28;8794;-63
2021/12/28 09:18:56;;;;;;;;;95.00;78.75;5.50;88.80;;;;;;5018328;28;8834;-63
2021/12/28 09:21:22;;;;;;;;;88.00;68.25;5.50;90.10;;;;;;5018179;28;8789;-63
2021/12/28 09:23:48;;;;;;;;;95.25;73.50;5.10;91.00;;;;;;5018241;28;8782;-62
2021/12/28 09:26:13;;;;;;;;;94.50;78.00;5.00;93.10;;;;;;5017152;28;8789;-62
2021/12/28 09:28:39;;;;;;;;;93.50;74.25;5.00;92.40;;;;;;5018220;28;8784;-63
2021/12/28 09:31:05;;;;;;;;;93.75;74.50;4.90;93.00;;;;;;5018078;28;8896;-62
2021/12/28 09:33:31;;;;;;;;;84.25;64.00;5.00;92.10;;;;;;5018383;28;8830;-65
2021/12/28 09:35:57;;;;;;;;;78.25;64.00;5.00;92.10;;;;;;5018084;28;8901;-62
2021/12/28 09:38:24;;;;;;;;;76.75;64.50;4.80;92.90;;;;;;5018237;28;8774;-63
2021/12/28 09:40:51;;;;;;;;;89.50;69.50;4.90;92.70;;;;;;5018283;28;8735;-65
2021/12/28 09:43:17;;;;;;;;;90.75;69.00;5.20;91.10;;;;;;5018180;28;8777;-64
2021/12/28 09:45:43;;;;;;;;;99.00;87.75;5.10;91.60;;;;;;5017904;28;8885;-63
2021/12/28 09:48:11;;;;;;;;;90.00;70.00;5.00;92.40;;;;;;5000378;28;9448;-63
2021/12/28 09:50:39;;;;;;;;;80.75;65.75;5.20;91.70;;;;;;5017879;28;8754;-63
2021/12/28 09:53:08;;;;;;;;;90.25;72.50;5.50;90.60;;;;;;5017649;28;8908;-65
2021/12/28 09:55:34;;;;;;;;;84.75;66.75;5.80;87.10;;;;;;5017651;28;8747;-64
2021/12/28 09:58:00;;;;;;;;;88.50;68.00;5.40;89.40;;;;;;5017629;28;8831;-63
2021/12/28 10:00:27;;;;;;;;;100.25;85.50;5.60;89.60;;;;;;5017730;28;8770;-64
2021/12/28 10:02:53;;;;;;;;;94.00;76.25;5.70;89.40;;;;;;5017576;28;8775;-62
2021/12/28 10:05:24;;;;;;;;;82.75;65.00;5.80;88.40;;;;;;5017829;28;8758;-64
2021/12/28 10:07:58;;;;;;;;;87.50;67.00;6.00;86.20;;;;;;5017549;28;8758;-62
2021/12/28 10:10:29;;;;;;;;;76.75;63.25;5.50;90.20;;;;;;5017525;28;8757;-63
2021/12/28 10:12:58;;;;;;;;;79.75;63.50;5.10;92.70;;;;;;5017260;28;8814;-62
2021/12/28 10:15:28;;;;;;;;;80.25;63.50;5.00;93.00;;;;;;5016854;28;8812;-63
2021/12/28 10:17:56;;;;;;;;;90.75;69.50;5.20;92.00;;;;;;5017109;28;8865;-64
2021/12/28 10:20:24;;;;;;;;;89.50;70.00;5.50;90.80;;;;;;5017376;28;8793;-63
2021/12/28 10:22:53;;;;;;;;;97.00;77.00;5.70;89.40;;;;;;5017165;28;8777;-63
2021/12/28 10:25:25;;;;;;;;;93.50;78.25;6.10;84.90;;;;;;5017084;28;8876;-63
2021/12/28 10:27:54;;;;;;;;;84.75;65.00;6.10;86.20;;;;;;5017264;28;9456;-64
2021/12/28 10:30:52;;;;;;;;;79.25;60.75;5.80;88.80;;;;;;5017067;28;8792;-63
2021/12/28 10:33:21;;;;;;;;;93.00;72.25;5.40;91.40;;;;;;5013055;28;8793;-62
2021/12/28 10:36:04;;;;;;;;;91.00;71.25;5.90;88.50;;;;;;5016971;28;8774;-63
2021/12/28 10:38:35;;;;;;;;;91.00;69.25;6.10;87.50;;;;;;5016732;28;8774;-63
2021/12/28 10:41:10;;;;;;;;;96.00;78.00;6.00;89.60;;;;;;5016843;28;8786;-63
2021/12/28 10:43:38;;;;;;;;;80.50;63.50;6.20;88.70;;;;;;5016977;28;8773;-62
2021/12/28 10:46:08;;;;;;;;;100.75;83.75;6.40;87.40;;;;;;5016690;28;8881;-63
2021/12/28 10:48:42;;;;;;;;;86.50;67.00;6.60;84.70;;;;;;5016767;28;8920;-61
2021/12/28 10:51:41;;;;;;;;;88.75;69.25;6.40;84.60;;;;;;5016727;28;9428;-62
2021/12/28 10:54:14;;;;;;;;;94.00;75.25;6.10;88.90;;;;;;5016537;28;8809;-63
2021/12/28 10:56:57;;;;;;;;;86.25;68.00;6.30;87.20;;;;;;5016526;28;8777;-63
2021/12/28 10:59:25;;;;;;;;;110.25;101.00;6.30;86.50;;;;;;5016795;28;8762;-64
2021/12/28 11:01:52;;;;;;;;;96.50;83.75;6.20;89.40;;;;;;5016522;28;8885;-64
2021/12/28 11:04:18;;;;;;;;;96.00;77.50;6.00;90.90;;;;;;5016398;28;8780;-63
2021/12/28 11:06:46;;;;;;;;;97.00;78.00;5.90;91.60;;;;;;5016407;28;8762;-64
2021/12/28 11:09:15;;;;;;;;;89.00;73.50;6.30;90.00;;;;;;5016520;28;9420;-63
2021/12/28 11:11:41;;;;;;;;;70.75;51.50;6.50;87.90;;;;;;5016221;28;8755;-63
2021/12/28 11:14:10;;;;;;;;;94.00;75.00;6.10;90.00;;;;;;5016417;28;9794;-64
2021/12/28 11:16:37;;;;;;;;;100.50;86.00;6.20;90.30;;;;;;5016207;28;8859;-65
2021/12/28 11:19:09;;;;;;;;;95.00;80.00;6.60;88.80;;;;;;5016064;28;8916;-64
2021/12/28 11:21:41;;;;;;;;;101.75;90.00;6.60;87.00;;;;;;5016181;28;8746;-63
2021/12/28 11:24:14;;;;;;;;;88.25;72.25;6.50;87.90;;;;;;5016030;28;8801;-65
2021/12/28 11:26:45;;;;;;;;;88.75;69.50;6.40;88.90;;;;;;5015252;28;8762;-64
2021/12/28 11:29:13;;;;;;;;;94.25;74.75;6.40;90.10;;;;;;5016232;28;9564;-63
2021/12/28 11:31:52;;;;;;;;;103.75;96.25;6.40;89.60;;;;;;5016055;28;8793;-64
2021/12/28 11:34:20;;;;;;;;;101.25;92.50;6.70;88.60;;;;;;5016144;28;9448;-64
2021/12/28 11:36:54;;;;;;;;;100.75;86.00;6.70;89.40;;;;;;5016133;28;8776;-63
2021/12/28 11:39:27;;;;;;;;;140.50;132.25;6.70;87.80;;;;;;5015824;28;9463;-63
2021/12/28 11:41:54;;;;;;;;;98.50;84.25;6.80;87.60;;;;;;5016041;28;9427;-65
2021/12/28 11:44:22;;;;;;;;;97.25;87.25;6.60;89.30;;;;;;5015569;28;8766;-63
2021/12/28 11:46:49;;;;;;;;;81.25;60.50;6.60;90.00;;;;;;5015583;28;8817;-65
2021/12/28 11:49:15;;;;;;;;;93.00;77.00;6.60;89.30;;;;;;5015622;28;8731;-64
2021/12/28 11:51:44;;;;;;;;;83.25;65.50;6.60;89.70;;;;;;5015506;28;8892;-64
2021/12/28 11:54:12;;;;;;;;;82.75;65.25;6.50;90.30;;;;;;5015516;28;8796;-65
2021/12/28 11:56:43;;;;;;;;;88.50;71.25;6.30;91.20;;;;;;5015341;28;8770;-65
2021/12/28 11:59:24;;;;;;;;;85.75;67.50;6.70;89.70;;;;;;5015526;28;9391;-64
2021/12/28 12:01:52;;;;;;;;;87.50;66.75;6.70;87.80;;;;;;5015630;28;9439;-66
2021/12/28 12:04:40;;;;;;;;;83.75;62.75;6.70;87.60;;;;;;5015367;28;8749;-64
2021/12/28 12:07:12;;;;;;;;;86.50;66.00;6.50;90.70;;;;;;5015403;28;8742;-64
2021/12/28 12:09:50;;;;;;;;;84.25;64.25;6.50;91.00;;;;;;5015354;28;8760;-64
2021/12/28 12:12:25;;;;;;;;;89.75;70.25;6.40;91.40;;;;;;5015258;28;8786;-64
2021/12/28 12:14:51;;;;;;;;;101.25;88.75;6.40;91.40;;;;;;5015497;28;8877;-66
2021/12/28 12:17:30;;;;;;;;;95.75;73.50;6.40;91.40;;;;;;5015075;28;8968;-64
2021/12/28 12:20:04;;;;;;;;;91.50;73.00;6.40;91.30;;;;;;5015143;28;8795;-66
2021/12/28 12:22:30;;;;;;;;;93.75;70.00;6.50;91.00;;;;;;5014703;28;8754;-65
2021/12/28 12:24:57;;;;;;;;;93.50;76.25;6.50;91.50;;;;;;5012954;28;8824;-64
2021/12/28 12:27:55;;;;;;;;;86.25;66.50;6.70;90.70;;;;;;5013504;28;8856;-62
2021/12/28 12:30:24;;;;;;;;;90.00;68.00;6.60;91.20;;;;;;4971468;28;8767;-64
2021/12/28 12:32:55;;;;;;;;;88.50;69.75;6.50;91.10;;;;;;4972568;28;8787;-64
2021/12/28 12:35:38;;;;;;;;;100.75;90.25;6.60;90.70;;;;;;4971928;28;8940;-64
2021/12/28 12:38:24;;;;;;;;;96.00;80.50;6.60;90.30;;;;;;4970995;28;8840;-64
2021/12/28 12:40:57;;;;;;;;;106.00;93.25;6.50;91.40;;;;;;4972059;28;8763;-64
2021/12/28 12:43:24;;;;;;;;;91.25;72.25;6.50;91.30;;;;;;4971747;28;8804;-64
2021/12/28 12:45:54;;;;;;;;;89.75;68.50;6.70;90.40;;;;;;4972657;28;8808;-64
2021/12/28 12:48:35;;;;;;;;;92.25;77.50;6.70;89.60;;;;;;4972878;28;8797;-65
2021/12/28 12:51:22;;;;;;;;;98.00;80.75;6.50;90.50;;;;;;4973067;28;9463;-64
2021/12/28 12:53:59;;;;;;;;;99.25;89.25;6.60;90.70;;;;;;4971633;28;8805;-64